createdAt,value
2023-03-02T00:00:43.925Z,96.59
2023-03-02T00:01:43.948Z,96.74
2023-03-02T00:02:43.908Z,97.00
2023-03-02T00:03:43.890Z,97.31
2023-03-02T00:04:43.868Z,97.62
2023-03-02T00:05:43.846Z,97.83
2023-03-02T00:06:43.864Z,97.35
2023-03-02T00:07:43.806Z,97.67
2023-03-02T00:08:43.808Z,98.19
2023-03-02T00:09:43.787Z,98.44
2023-03-02T00:10:43.806Z,98.65
2023-03-02T00:11:43.773Z,99.07
2023-03-02T00:12:43.766Z,99.38
2023-03-02T00:13:43.747Z,99.55
2023-03-02T00:14:43.741Z,99.76
2023-03-02T00:15:43.817Z,99.80
2023-03-02T00:16:43.740Z,99.49
2023-03-02T00:17:43.756Z,99.18
2023-03-02T00:18:43.692Z,99.80
2023-03-02T00:19:43.694Z,99.99
2023-03-02T00:20:43.681Z,99.99
2023-03-02T00:21:43.689Z,99.86
2023-03-02T00:22:43.688Z,99.92
2023-03-02T00:23:43.650Z,99.92
2023-03-02T00:24:43.629Z,99.71
2023-03-02T00:25:43.852Z,99.88
2023-03-02T00:26:43.620Z,99.66
2023-03-02T00:27:43.603Z,98.88
2023-03-02T00:28:43.623Z,98.56
2023-03-02T00:29:43.578Z,98.67
2023-03-02T00:30:43.599Z,98.77
2023-03-02T00:31:43.635Z,98.56
2023-03-02T00:32:43.570Z,98.67
2023-03-02T00:33:43.543Z,98.52
2023-03-02T00:34:43.533Z,98.31
2023-03-02T00:35:43.595Z,98.52
2023-03-02T00:36:43.845Z,97.95
2023-03-02T00:37:43.510Z,97.43
2023-03-02T00:38:43.517Z,97.32
2023-03-02T00:39:43.732Z,97.22
2023-03-02T00:40:43.467Z,96.91
2023-03-02T00:41:43.501Z,97.01
2023-03-02T00:42:43.459Z,96.13
2023-03-02T00:43:43.808Z,96.17
2023-03-02T00:44:43.437Z,96.01
2023-03-02T00:45:43.431Z,96.22
2023-03-02T00:46:43.458Z,96.05
2023-03-02T00:47:43.394Z,96.64
2023-03-02T00:48:43.409Z,97.53
2023-03-02T00:49:43.410Z,97.01
2023-03-02T00:50:43.378Z,95.59
2023-03-02T00:51:43.360Z,95.49
2023-03-02T00:52:43.378Z,95.90
2023-03-02T00:53:43.351Z,96.95
2023-03-02T00:54:43.544Z,96.53
2023-03-02T00:55:43.418Z,96.95
2023-03-02T00:56:43.344Z,96.43
2023-03-02T00:57:43.275Z,96.84
2023-03-02T00:58:43.337Z,96.43
2023-03-02T00:59:43.257Z,96.16
2023-03-02T01:00:43.286Z,95.26
2023-03-02T01:01:43.235Z,95.41
2023-03-02T01:02:43.401Z,95.83
2023-03-02T01:03:43.211Z,96.04
2023-03-02T01:04:43.237Z,95.87
2023-03-02T01:05:43.225Z,95.92
2023-03-02T01:06:43.325Z,96.17
2023-03-02T01:07:43.179Z,96.69
2023-03-02T01:08:43.184Z,96.69
2023-03-02T01:09:43.174Z,97.32
2023-03-02T01:10:43.182Z,97.63
2023-03-02T01:11:43.144Z,99.10
2023-03-02T01:12:43.153Z,98.83
2023-03-02T01:13:43.139Z,98.83
2023-03-02T01:14:43.107Z,98.62
2023-03-02T01:15:43.118Z,99.08
2023-03-02T01:16:43.128Z,99.51
2023-03-02T01:17:43.112Z,99.99
2023-03-02T01:18:43.100Z,99.99
2023-03-02T01:19:43.054Z,99.99
2023-03-02T01:20:43.066Z,99.99
2023-03-02T01:21:43.065Z,99.99
2023-03-02T01:22:43.043Z,99.99
2023-03-02T01:23:43.012Z,99.99
2023-03-02T01:24:43.015Z,99.99
2023-03-02T01:25:42.993Z,99.99
2023-03-02T01:26:43.331Z,99.99
2023-03-02T01:27:42.968Z,99.99
2023-03-02T01:28:42.963Z,99.99
2023-03-02T01:29:42.952Z,99.99
2023-03-02T01:30:42.981Z,99.99
2023-03-02T01:31:43.075Z,99.99
2023-03-02T01:32:42.914Z,99.99
2023-03-02T01:33:42.909Z,99.99
2023-03-02T01:34:42.905Z,99.99
2023-03-02T01:35:43.017Z,99.99
2023-03-02T01:36:42.904Z,99.99
2023-03-02T01:37:42.867Z,99.99
2023-03-02T01:38:42.929Z,99.99
2023-03-02T01:39:42.868Z,99.99
2023-03-02T01:40:42.942Z,99.99
2023-03-02T01:41:42.826Z,99.99
2023-03-02T01:42:42.830Z,99.99
2023-03-02T01:43:42.816Z,99.99
2023-03-02T01:44:42.850Z,99.99
2023-03-02T01:45:42.835Z,99.99
2023-03-02T01:46:42.799Z,99.99
2023-03-02T01:47:42.755Z,99.99
2023-03-02T01:48:42.742Z,99.99
2023-03-02T01:49:42.739Z,99.99
2023-03-02T01:50:42.755Z,99.99
2023-03-02T01:51:42.737Z,99.99
2023-03-02T01:52:42.862Z,99.99
2023-03-02T01:53:42.700Z,99.99
2023-03-02T01:54:42.688Z,99.99
2023-03-02T01:55:42.702Z,99.99
2023-03-02T01:56:42.666Z,99.99
2023-03-02T01:57:42.658Z,99.99
2023-03-02T01:58:42.677Z,99.99
2023-03-02T01:59:42.640Z,99.99
2023-03-02T02:00:42.677Z,99.99
2023-03-02T02:01:42.615Z,99.99
2023-03-02T02:02:42.618Z,99.99
2023-03-02T02:03:42.636Z,99.99
2023-03-02T02:04:42.598Z,99.99
2023-03-02T02:05:42.587Z,99.99
2023-03-02T02:06:42.564Z,99.99
2023-03-02T02:07:42.552Z,99.99
2023-03-02T02:08:42.573Z,99.99
2023-03-02T02:09:42.530Z,99.99
2023-03-02T02:10:42.591Z,99.99
2023-03-02T02:11:42.508Z,99.99
2023-03-02T02:12:42.553Z,99.99
2023-03-02T02:13:42.506Z,99.99
2023-03-02T02:14:42.489Z,99.99
2023-03-02T02:15:42.500Z,99.99
2023-03-02T02:16:42.497Z,99.99
2023-03-02T02:17:42.443Z,99.99
2023-03-02T02:18:42.432Z,99.99
2023-03-02T02:19:42.453Z,99.99
2023-03-02T02:20:42.465Z,99.99
2023-03-02T02:21:42.410Z,99.99
2023-03-02T02:22:42.518Z,99.99
2023-03-02T02:23:42.385Z,99.99
2023-03-02T02:24:42.397Z,99.99
2023-03-02T02:25:42.746Z,99.99
2023-03-02T02:26:42.345Z,99.99
2023-03-02T02:27:42.341Z,99.99
2023-03-02T02:28:42.327Z,99.99
2023-03-02T02:29:42.314Z,99.99
2023-03-02T02:30:42.337Z,99.99
2023-03-02T02:31:42.392Z,99.99
2023-03-02T02:32:42.360Z,99.99
2023-03-02T02:33:42.275Z,99.99
2023-03-02T02:34:42.285Z,99.99
2023-03-02T02:35:42.414Z,99.99
2023-03-02T02:36:42.242Z,99.99
2023-03-02T02:37:42.236Z,99.99
2023-03-02T02:38:42.303Z,99.99
2023-03-02T02:39:42.403Z,99.99
2023-03-02T02:40:42.240Z,99.99
2023-03-02T02:41:42.197Z,99.99
2023-03-02T02:42:42.197Z,99.99
2023-03-02T02:43:42.188Z,99.99
2023-03-02T02:44:42.254Z,99.99
2023-03-02T02:45:42.348Z,99.99
2023-03-02T02:46:42.154Z,99.99
2023-03-02T02:47:42.163Z,99.99
2023-03-02T02:48:42.119Z,99.99
2023-03-02T02:49:42.218Z,99.99
2023-03-02T02:50:42.095Z,99.99
2023-03-02T02:51:42.084Z,99.99
2023-03-02T02:52:42.078Z,99.99
2023-03-02T02:53:42.080Z,99.99
2023-03-02T02:54:42.083Z,99.99
2023-03-02T02:55:42.059Z,99.99
2023-03-02T02:56:42.046Z,99.99
2023-03-02T02:57:42.036Z,99.99
2023-03-02T02:58:42.009Z,99.99
2023-03-02T02:59:41.999Z,99.99
2023-03-02T03:00:42.019Z,99.99
2023-03-02T03:01:42.010Z,99.99
2023-03-02T03:02:41.981Z,99.99
2023-03-02T03:03:41.983Z,99.99
2023-03-02T03:04:41.994Z,99.99
2023-03-02T03:05:41.952Z,99.99
2023-03-02T03:06:41.966Z,99.99
2023-03-02T03:07:41.926Z,99.99
2023-03-02T03:08:41.920Z,99.99
2023-03-02T03:09:41.933Z,99.99
2023-03-02T03:10:41.905Z,99.99
2023-03-02T03:11:41.880Z,99.99
2023-03-02T03:12:42.063Z,99.99
2023-03-02T03:13:41.853Z,99.99
2023-03-02T03:14:41.868Z,99.99
2023-03-02T03:15:41.872Z,99.99
2023-03-02T03:16:41.906Z,99.99
2023-03-02T03:17:41.815Z,99.99
2023-03-02T03:18:41.801Z,99.99
2023-03-02T03:19:41.804Z,99.99
2023-03-02T03:20:41.796Z,99.99
2023-03-02T03:21:41.783Z,99.99
2023-03-02T03:22:41.784Z,99.99
2023-03-02T03:23:41.755Z,99.99
2023-03-02T03:24:41.740Z,99.99
2023-03-02T03:25:41.940Z,99.99
2023-03-02T03:26:41.723Z,99.99
2023-03-02T03:27:41.726Z,99.99
2023-03-02T03:28:41.719Z,99.99
2023-03-02T03:29:41.701Z,99.99
2023-03-02T03:30:41.743Z,99.99
2023-03-02T03:31:41.689Z,99.99
2023-03-02T03:32:41.688Z,99.99
2023-03-02T03:33:41.647Z,99.99
2023-03-02T03:34:41.668Z,99.99
2023-03-02T03:35:41.700Z,99.99
2023-03-02T03:36:41.615Z,99.99
2023-03-02T03:37:41.651Z,99.99
2023-03-02T03:38:41.583Z,99.99
2023-03-02T03:39:41.576Z,99.99
2023-03-02T03:40:41.837Z,99.99
2023-03-02T03:41:41.570Z,99.99
2023-03-02T03:42:41.551Z,99.99
2023-03-02T03:43:41.605Z,99.99
2023-03-02T03:44:41.563Z,99.99
2023-03-02T03:45:41.537Z,99.99
2023-03-02T03:46:41.494Z,99.99
2023-03-02T03:47:41.492Z,99.99
2023-03-02T03:48:41.479Z,99.99
2023-03-02T03:49:41.489Z,99.99
2023-03-02T03:50:41.480Z,99.99
2023-03-02T03:51:41.483Z,99.99
2023-03-02T03:52:41.433Z,99.99
2023-03-02T03:53:41.426Z,99.99
2023-03-02T03:54:41.426Z,99.99
2023-03-02T03:55:41.428Z,99.99
2023-03-02T03:56:41.401Z,99.99
2023-03-02T03:57:41.395Z,99.99
2023-03-02T03:58:41.489Z,99.99
2023-03-02T03:59:41.367Z,99.99
2023-03-02T04:00:41.418Z,99.99
2023-03-02T04:01:41.383Z,99.99
2023-03-02T04:02:41.424Z,99.99
2023-03-02T04:03:41.336Z,99.99
2023-03-02T04:04:41.337Z,99.99
2023-03-02T04:05:41.302Z,99.99
2023-03-02T04:06:41.295Z,99.99
2023-03-02T04:07:41.287Z,99.99
2023-03-02T04:08:41.263Z,99.99
2023-03-02T04:09:41.282Z,99.99
2023-03-02T04:10:41.270Z,99.99
2023-03-02T04:11:41.259Z,99.99
2023-03-02T04:12:41.227Z,99.99
2023-03-02T04:13:41.211Z,99.99
2023-03-02T04:14:41.236Z,99.99
2023-03-02T04:15:41.245Z,99.99
2023-03-02T04:16:41.203Z,99.99
2023-03-02T04:17:41.197Z,99.99
2023-03-02T04:18:41.165Z,99.99
2023-03-02T04:19:41.176Z,99.99
2023-03-02T04:20:41.166Z,99.99
2023-03-02T04:21:41.168Z,99.99
2023-03-02T04:22:41.117Z,99.99
2023-03-02T04:23:41.117Z,99.99
2023-03-02T04:24:41.104Z,99.99
2023-03-02T04:25:41.123Z,99.99
2023-03-02T04:26:41.079Z,99.99
2023-03-02T04:27:41.078Z,99.99
2023-03-02T04:28:41.071Z,99.99
2023-03-02T04:29:41.065Z,99.99
2023-03-02T04:30:41.112Z,99.99
2023-03-02T04:31:41.042Z,99.99
2023-03-02T04:32:41.103Z,99.99
2023-03-02T04:33:41.021Z,99.99
2023-03-02T04:34:41.008Z,99.99
2023-03-02T04:35:41.123Z,99.99
2023-03-02T04:36:41.003Z,99.99
2023-03-02T04:37:40.999Z,99.99
2023-03-02T04:38:40.993Z,99.99
2023-03-02T04:39:40.962Z,99.99
2023-03-02T04:40:40.990Z,99.99
2023-03-02T04:41:40.946Z,99.99
2023-03-02T04:42:40.956Z,99.99
2023-03-02T04:43:40.920Z,99.99
2023-03-02T04:44:40.921Z,99.99
2023-03-02T04:45:40.923Z,99.99
2023-03-02T04:46:42.879Z,99.99
2023-03-02T04:47:40.881Z,99.99
2023-03-02T04:48:40.898Z,99.99
2023-03-02T04:49:40.861Z,99.99
2023-03-02T04:50:40.877Z,99.99
2023-03-02T04:51:40.849Z,99.99
2023-03-02T04:52:40.855Z,99.99
2023-03-02T04:53:40.838Z,99.99
2023-03-02T04:54:40.810Z,99.99
2023-03-02T04:55:40.823Z,99.99
2023-03-02T04:56:40.801Z,99.99
2023-03-02T04:57:40.788Z,99.99
2023-03-02T04:58:40.778Z,99.99
2023-03-02T04:59:40.774Z,99.99
2023-03-02T05:00:40.759Z,99.99
2023-03-02T05:01:40.748Z,99.99
2023-03-02T05:02:40.856Z,99.99
2023-03-02T05:03:40.708Z,99.99
2023-03-02T05:04:40.783Z,99.99
2023-03-02T05:05:40.704Z,99.99
2023-03-02T05:06:40.675Z,99.99
2023-03-02T05:07:40.680Z,99.99
2023-03-02T05:08:40.671Z,99.99
2023-03-02T05:09:40.685Z,99.99
2023-03-02T05:10:40.651Z,99.99
2023-03-02T05:11:40.656Z,99.99
2023-03-02T05:12:40.628Z,99.99
2023-03-02T05:13:40.621Z,99.99
2023-03-02T05:14:40.616Z,99.99
2023-03-02T05:15:40.609Z,99.99
2023-03-02T05:16:40.640Z,99.99
2023-03-02T05:17:40.592Z,99.99
2023-03-02T05:18:40.552Z,99.99
2023-03-02T05:19:40.553Z,99.99
2023-03-02T05:20:40.975Z,99.99
2023-03-02T05:21:40.527Z,99.99
2023-03-02T05:22:40.506Z,99.99
2023-03-02T05:23:40.520Z,99.99
2023-03-02T05:24:40.497Z,99.99
2023-03-02T05:25:40.523Z,99.99
2023-03-02T05:26:40.504Z,99.99
2023-03-02T05:27:40.471Z,99.99
2023-03-02T05:28:40.469Z,99.99
2023-03-02T05:29:40.442Z,99.99
2023-03-02T05:30:40.463Z,99.99
2023-03-02T05:31:40.458Z,99.99
2023-03-02T05:32:40.502Z,99.99
2023-03-02T05:33:40.400Z,99.99
2023-03-02T05:34:40.388Z,99.99
2023-03-02T05:35:40.455Z,99.99
2023-03-02T05:36:40.455Z,99.99
2023-03-02T05:37:40.381Z,99.99
2023-03-02T05:38:40.344Z,99.99
2023-03-02T05:39:40.348Z,99.99
2023-03-02T05:40:40.342Z,99.99
2023-03-02T05:41:40.359Z,99.99
2023-03-02T05:42:40.301Z,99.99
2023-03-02T05:43:40.301Z,99.99
2023-03-02T05:44:40.283Z,99.99
2023-03-02T05:45:40.295Z,99.99
2023-03-02T05:46:40.358Z,99.99
2023-03-02T05:47:40.253Z,99.99
2023-03-02T05:48:40.252Z,99.99
2023-03-02T05:49:40.230Z,99.99
2023-03-02T05:50:40.251Z,99.99
2023-03-02T05:51:40.217Z,99.99
2023-03-02T05:52:40.220Z,99.99
2023-03-02T05:53:40.210Z,99.99
2023-03-02T05:54:40.187Z,99.99
2023-03-02T05:55:40.189Z,99.99
2023-03-02T05:56:40.180Z,99.99
2023-03-02T05:57:40.147Z,99.99
2023-03-02T05:58:40.147Z,99.99
2023-03-02T05:59:40.125Z,99.99
2023-03-02T06:00:40.142Z,99.99
2023-03-02T06:01:40.145Z,99.99
2023-03-02T06:02:40.149Z,99.99
2023-03-02T06:03:40.119Z,99.99
2023-03-02T06:04:40.072Z,99.99
2023-03-02T06:05:40.117Z,99.99
2023-03-02T06:06:40.298Z,99.99
2023-03-02T06:07:40.080Z,99.99
2023-03-02T06:08:40.076Z,99.99
2023-03-02T06:09:40.115Z,99.99
2023-03-02T06:10:40.054Z,99.99
2023-03-02T06:11:40.073Z,99.99
2023-03-02T06:12:40.059Z,99.99
2023-03-02T06:13:40.005Z,99.99
2023-03-02T06:14:39.964Z,99.99
2023-03-02T06:15:40.068Z,99.99
2023-03-02T06:16:40.021Z,99.99
2023-03-02T06:17:39.971Z,99.99
2023-03-02T06:18:41.572Z,99.99
2023-03-02T06:19:39.935Z,99.99
2023-03-02T06:20:40.536Z,99.99
2023-03-02T06:21:39.947Z,99.99
2023-03-02T06:22:39.896Z,99.99
2023-03-02T06:23:39.871Z,99.99
2023-03-02T06:24:39.906Z,99.99
2023-03-02T06:25:39.865Z,99.99
2023-03-02T06:26:39.878Z,99.99
2023-03-02T06:27:39.856Z,99.99
2023-03-02T06:28:51.347Z,99.99
2023-03-02T06:29:40.811Z,99.99
2023-03-02T06:30:39.812Z,99.99
2023-03-02T06:31:39.853Z,99.99
2023-03-02T06:32:39.783Z,99.99
2023-03-02T06:33:39.768Z,99.99
2023-03-02T06:34:39.778Z,99.99
2023-03-02T06:35:39.881Z,99.99
2023-03-02T06:36:39.819Z,99.99
2023-03-02T06:37:40.305Z,99.99
2023-03-02T06:38:39.725Z,99.99
2023-03-02T06:39:39.705Z,99.99
2023-03-02T06:40:39.707Z,99.99
2023-03-02T06:41:39.716Z,99.99
2023-03-02T06:42:39.680Z,99.99
2023-03-02T06:43:39.655Z,99.99
2023-03-02T06:44:39.676Z,99.82
2023-03-02T06:45:39.699Z,99.71
2023-03-02T06:46:39.656Z,99.82
2023-03-02T06:47:39.617Z,99.82
2023-03-02T06:48:39.612Z,99.82
2023-03-02T06:49:39.622Z,99.99
2023-03-02T06:50:39.589Z,99.99
2023-03-02T06:51:39.587Z,99.92
2023-03-02T06:52:39.591Z,99.29
2023-03-02T06:53:39.602Z,98.83
2023-03-02T06:54:39.559Z,98.88
2023-03-02T06:55:39.537Z,99.66
2023-03-02T06:56:41.086Z,98.67
2023-03-02T06:57:39.550Z,98.88
2023-03-02T06:58:39.504Z,99.04
2023-03-02T06:59:39.495Z,98.62
2023-03-02T07:00:39.503Z,98.62
2023-03-02T07:01:39.486Z,98.88
2023-03-02T07:02:39.466Z,99.04
2023-03-02T07:03:39.508Z,98.83
2023-03-02T07:04:39.444Z,98.72
2023-03-02T07:05:39.470Z,98.62
2023-03-02T07:06:39.410Z,98.37
2023-03-02T07:07:39.404Z,98.52
2023-03-02T07:08:39.399Z,97.37
2023-03-02T07:09:39.388Z,97.64
2023-03-02T07:10:39.407Z,97.85
2023-03-02T07:11:39.362Z,97.95
2023-03-02T07:12:39.369Z,98.58
2023-03-02T07:13:39.359Z,97.53
2023-03-02T07:14:39.333Z,97.53
2023-03-02T07:15:39.332Z,97.53
2023-03-02T07:16:39.335Z,97.59
2023-03-02T07:17:39.307Z,97.11
2023-03-02T07:18:39.300Z,97.74
2023-03-02T07:19:40.916Z,97.64
2023-03-02T07:20:39.294Z,97.95
2023-03-02T07:21:39.288Z,97.43
2023-03-02T07:22:39.254Z,98.32
2023-03-02T07:23:39.265Z,97.59
2023-03-02T07:24:39.265Z,97.53
2023-03-02T07:25:39.250Z,97.49
2023-03-02T07:26:39.214Z,97.85
2023-03-02T07:27:39.229Z,97.38
2023-03-02T07:28:39.232Z,97.59
2023-03-02T07:29:39.198Z,97.49
2023-03-02T07:30:39.202Z,97.17
2023-03-02T07:31:39.176Z,96.66
2023-03-02T07:32:39.191Z,96.03
2023-03-02T07:33:39.165Z,96.34
2023-03-02T07:34:39.152Z,96.13
2023-03-02T07:35:39.138Z,96.23
2023-03-02T07:36:39.131Z,95.72
2023-03-02T07:37:39.109Z,96.13
2023-03-02T07:38:39.107Z,96.23
2023-03-02T07:39:39.081Z,96.13
2023-03-02T07:40:39.052Z,95.61
2023-03-02T07:41:39.046Z,95.50
2023-03-02T07:42:39.035Z,95.46
2023-03-02T07:43:39.060Z,95.67
2023-03-02T07:44:39.057Z,95.36
2023-03-02T07:45:39.004Z,95.25
2023-03-02T07:46:39.082Z,95.04
2023-03-02T07:47:39.022Z,95.04
2023-03-02T07:48:39.012Z,95.36
2023-03-02T07:49:39.005Z,94.94
2023-03-02T07:50:39.165Z,94.94
2023-03-02T07:51:38.959Z,95.67
2023-03-02T07:52:38.957Z,95.46
2023-03-02T07:53:38.982Z,94.84
2023-03-02T07:54:38.909Z,94.94
2023-03-02T07:55:38.913Z,94.63
2023-03-02T07:56:38.900Z,94.69
2023-03-02T07:57:38.880Z,94.73
2023-03-02T07:58:38.878Z,94.58
2023-03-02T07:59:38.885Z,94.73
2023-03-02T08:00:40.686Z,94.48
2023-03-02T08:01:38.832Z,94.37
2023-03-02T08:02:38.873Z,95.10
2023-03-02T08:03:38.811Z,95.00
2023-03-02T08:04:38.829Z,94.58
2023-03-02T08:05:38.802Z,94.27
2023-03-02T08:06:41.040Z,94.69
2023-03-02T08:07:38.797Z,94.90
2023-03-02T08:08:38.778Z,95.00
2023-03-02T08:09:38.780Z,94.54
2023-03-02T08:10:38.766Z,94.37
2023-03-02T08:11:38.736Z,94.75
2023-03-02T08:12:38.712Z,94.85
2023-03-02T08:13:38.718Z,94.85
2023-03-02T08:14:39.290Z,94.85
2023-03-02T08:15:38.746Z,94.85
2023-03-02T08:16:38.779Z,93.81
2023-03-02T08:17:38.669Z,92.97
2023-03-02T08:18:38.659Z,93.14
2023-03-02T08:19:38.657Z,93.29
2023-03-02T08:20:38.633Z,93.98
2023-03-02T08:21:38.660Z,93.71
2023-03-02T08:22:38.612Z,93.66
2023-03-02T08:23:38.614Z,93.04
2023-03-02T08:24:38.622Z,92.62
2023-03-02T08:25:38.598Z,92.83
2023-03-02T08:26:38.602Z,92.83
2023-03-02T08:27:38.560Z,92.72
2023-03-02T08:28:38.580Z,93.56
2023-03-02T08:29:38.550Z,93.35
2023-03-02T08:30:38.545Z,93.24
2023-03-02T08:31:38.634Z,93.46
2023-03-02T08:32:38.591Z,92.83
2023-03-02T08:33:38.516Z,93.35
2023-03-02T08:34:38.494Z,92.62
2023-03-02T08:35:38.527Z,92.62
2023-03-02T08:36:38.490Z,92.10
2023-03-02T08:37:38.457Z,92.62
2023-03-02T08:38:38.478Z,93.24
2023-03-02T08:39:38.435Z,92.72
2023-03-02T08:40:38.571Z,92.72
2023-03-02T08:41:38.408Z,92.72
2023-03-02T08:42:38.408Z,92.72
2023-03-02T08:43:38.392Z,92.99
2023-03-02T08:44:38.403Z,92.58
2023-03-02T08:45:38.496Z,92.06
2023-03-02T08:46:38.383Z,92.21
2023-03-02T08:47:38.351Z,93.20
2023-03-02T08:48:38.358Z,92.64
2023-03-02T08:49:38.324Z,92.99
2023-03-02T08:50:38.343Z,92.85
2023-03-02T08:51:38.296Z,92.74
2023-03-02T08:52:38.321Z,93.16
2023-03-02T08:53:38.299Z,93.01
2023-03-02T08:54:38.325Z,92.60
2023-03-02T08:55:38.308Z,91.87
2023-03-02T08:56:38.252Z,91.56
2023-03-02T08:57:38.229Z,91.56
2023-03-02T08:58:38.243Z,91.41
2023-03-02T08:59:38.245Z,91.25
2023-03-02T09:00:38.210Z,91.66
2023-03-02T09:01:38.536Z,91.46
2023-03-02T09:02:38.205Z,91.97
2023-03-02T09:03:38.172Z,91.52
2023-03-02T09:04:38.208Z,90.93
2023-03-02T09:05:38.221Z,92.08
2023-03-02T09:06:38.158Z,91.56
2023-03-02T09:07:38.127Z,92.14
2023-03-02T09:08:38.132Z,91.62
2023-03-02T09:09:38.117Z,91.00
2023-03-02T09:10:38.122Z,90.47
2023-03-02T09:11:38.131Z,90.37
2023-03-02T09:12:38.093Z,91.52
2023-03-02T09:13:38.075Z,90.00
2023-03-02T09:14:38.050Z,89.95
2023-03-02T09:15:38.055Z,89.75
2023-03-02T09:16:38.161Z,90.26
2023-03-02T09:17:38.047Z,90.47
2023-03-02T09:18:38.024Z,90.26
2023-03-02T09:19:38.018Z,88.92
2023-03-02T09:20:38.034Z,90.16
2023-03-02T09:21:37.985Z,89.89
2023-03-02T09:22:37.978Z,90.47
2023-03-02T09:23:37.994Z,92.45
2023-03-02T09:24:37.965Z,91.78
2023-03-02T09:25:37.970Z,91.27
2023-03-02T09:26:37.929Z,91.06
2023-03-02T09:27:37.915Z,90.12
2023-03-02T09:28:37.909Z,91.33
2023-03-02T09:29:37.903Z,90.81
2023-03-02T09:30:37.901Z,89.81
2023-03-02T09:31:38.627Z,89.77
2023-03-02T09:32:38.106Z,91.74
2023-03-02T09:33:37.891Z,91.43
2023-03-02T09:34:37.850Z,89.67
2023-03-02T09:35:37.852Z,88.04
2023-03-02T09:36:37.855Z,88.31
2023-03-02T09:37:37.856Z,89.36
2023-03-02T09:38:37.824Z,88.46
2023-03-02T09:39:37.790Z,88.25
2023-03-02T09:40:37.782Z,88.77
2023-03-02T09:41:37.772Z,89.56
2023-03-02T09:42:43.884Z,89.83
2023-03-02T09:43:38.777Z,89.94
2023-03-02T09:44:37.733Z,88.90
2023-03-02T09:45:37.768Z,88.48
2023-03-02T09:46:37.744Z,87.92
2023-03-02T09:47:37.704Z,87.82
2023-03-02T09:48:37.704Z,88.96
2023-03-02T09:49:37.682Z,87.96
2023-03-02T09:50:37.753Z,88.44
2023-03-02T09:51:37.665Z,88.65
2023-03-02T09:52:37.716Z,88.30
2023-03-02T09:53:37.636Z,87.19
2023-03-02T09:54:37.686Z,87.16
2023-03-02T09:55:37.613Z,87.09
2023-03-02T09:56:37.615Z,87.92
2023-03-02T09:57:37.611Z,88.34
2023-03-02T09:58:37.608Z,87.82
2023-03-02T09:59:37.584Z,87.47
2023-03-02T10:00:37.576Z,86.54
2023-03-02T10:01:37.546Z,85.29
2023-03-02T10:02:37.543Z,85.39
2023-03-02T10:03:37.728Z,85.39
2023-03-02T10:04:37.580Z,86.57
2023-03-02T10:05:37.520Z,87.68
2023-03-02T10:06:37.507Z,86.74
2023-03-02T10:07:37.488Z,86.95
2023-03-02T10:08:37.512Z,87.47
2023-03-02T10:09:37.476Z,86.85
2023-03-02T10:10:37.491Z,86.95
2023-03-02T10:11:37.464Z,85.71
2023-03-02T10:12:37.444Z,86.12
2023-03-02T10:13:37.428Z,87.78
2023-03-02T10:14:37.450Z,87.05
2023-03-02T10:15:37.542Z,87.16
2023-03-02T10:16:37.677Z,87.88
2023-03-02T10:17:37.372Z,86.80
2023-03-02T10:18:37.391Z,85.14
2023-03-02T10:19:37.352Z,85.29
2023-03-02T10:20:37.364Z,84.46
2023-03-02T10:21:37.353Z,85.74
2023-03-02T10:22:37.322Z,86.16
2023-03-02T10:23:37.312Z,87.30
2023-03-02T10:24:37.382Z,85.64
2023-03-02T10:25:37.301Z,85.85
2023-03-02T10:26:37.275Z,85.53
2023-03-02T10:27:37.301Z,86.74
2023-03-02T10:28:37.264Z,86.12
2023-03-02T10:29:37.256Z,87.78
2023-03-02T10:30:37.278Z,87.53
2023-03-02T10:31:37.228Z,85.46
2023-03-02T10:32:37.230Z,85.35
2023-03-02T10:33:37.249Z,85.35
2023-03-02T10:34:37.200Z,86.39
2023-03-02T10:35:37.236Z,86.87
2023-03-02T10:36:37.485Z,86.87
2023-03-02T10:37:37.204Z,85.06
2023-03-02T10:38:37.162Z,84.34
2023-03-02T10:39:37.136Z,84.17
2023-03-02T10:40:37.159Z,84.23
2023-03-02T10:41:38.604Z,85.27
2023-03-02T10:42:37.109Z,85.06
2023-03-02T10:43:37.122Z,84.34
2023-03-02T10:44:37.097Z,84.13
2023-03-02T10:45:37.089Z,84.61
2023-03-02T10:46:37.129Z,83.99
2023-03-02T10:47:37.061Z,83.89
2023-03-02T10:48:41.044Z,85.34
2023-03-02T10:49:37.044Z,83.58
2023-03-02T10:50:37.035Z,83.78
2023-03-02T10:51:37.050Z,83.89
2023-03-02T10:52:37.014Z,83.26
2023-03-02T10:53:36.989Z,82.44
2023-03-02T10:54:36.980Z,83.47
2023-03-02T10:55:37.052Z,83.85
2023-03-02T10:56:36.976Z,84.53
2023-03-02T10:57:37.027Z,84.43
2023-03-02T10:58:36.945Z,83.09
2023-03-02T10:59:36.921Z,82.01
2023-03-02T11:00:36.948Z,82.12
2023-03-02T11:01:36.984Z,83.67
2023-03-02T11:02:36.892Z,83.40
2023-03-02T11:03:36.879Z,83.40
2023-03-02T11:04:36.923Z,85.22
2023-03-02T11:05:36.902Z,82.32
2023-03-02T11:06:36.854Z,82.08
2023-03-02T11:07:36.879Z,83.53
2023-03-02T11:08:36.818Z,81.67
2023-03-02T11:09:36.822Z,81.77
2023-03-02T11:10:36.884Z,83.22
2023-03-02T11:11:37.347Z,81.98
2023-03-02T11:12:36.813Z,81.81
2023-03-02T11:13:36.825Z,81.74
2023-03-02T11:14:36.791Z,84.08
2023-03-02T11:15:36.845Z,83.15
2023-03-02T11:16:36.740Z,83.11
2023-03-02T11:17:36.741Z,82.80
2023-03-02T11:18:36.737Z,82.08
2023-03-02T11:19:36.715Z,82.39
2023-03-02T11:20:36.753Z,80.53
2023-03-02T11:21:36.710Z,80.11
2023-03-02T11:22:36.684Z,80.53
2023-03-02T11:23:36.662Z,80.63
2023-03-02T11:24:36.662Z,82.29
2023-03-02T11:25:36.664Z,81.87
2023-03-02T11:26:36.625Z,78.98
2023-03-02T11:27:36.657Z,80.43
2023-03-02T11:28:36.648Z,80.43
2023-03-02T11:29:36.662Z,81.98
2023-03-02T11:30:36.615Z,81.56
2023-03-02T11:31:36.994Z,81.05
2023-03-02T11:32:36.647Z,81.73
2023-03-02T11:33:36.584Z,81.84
2023-03-02T11:34:36.554Z,83.70
2023-03-02T11:35:36.594Z,80.63
2023-03-02T11:36:36.518Z,80.11
2023-03-02T11:37:36.504Z,80.43
2023-03-02T11:38:36.506Z,82.29
2023-03-02T11:39:41.142Z,80.01
2023-03-02T11:40:37.490Z,80.60
2023-03-02T11:41:36.470Z,80.90
2023-03-02T11:42:36.555Z,82.25
2023-03-02T11:43:36.453Z,81.80
2023-03-02T11:44:36.468Z,78.63
2023-03-02T11:45:36.447Z,79.97
2023-03-02T11:46:36.436Z,79.94
2023-03-02T11:47:36.405Z,78.84
2023-03-02T11:48:36.389Z,78.91
2023-03-02T11:49:36.383Z,79.32
2023-03-02T11:50:36.458Z,78.01
2023-03-02T11:51:37.836Z,77.91
2023-03-02T11:52:36.352Z,78.25
2023-03-02T11:53:36.426Z,79.29
2023-03-02T11:54:36.334Z,80.11
2023-03-02T11:55:36.328Z,79.49
2023-03-02T11:56:36.298Z,79.46
2023-03-02T11:57:38.585Z,79.66
2023-03-02T11:58:36.317Z,79.05
2023-03-02T11:59:36.276Z,79.56
2023-03-02T12:00:36.283Z,78.42
2023-03-02T12:01:36.784Z,78.01
2023-03-02T12:02:36.253Z,79.97
2023-03-02T12:03:36.249Z,80.87
2023-03-02T12:04:36.236Z,80.58
2023-03-02T12:05:36.369Z,77.01
2023-03-02T12:06:36.199Z,77.60
2023-03-02T12:07:36.198Z,78.84
2023-03-02T12:08:36.202Z,78.36
2023-03-02T12:09:36.230Z,78.36
2023-03-02T12:10:36.218Z,78.15
2023-03-02T12:11:36.173Z,78.56
2023-03-02T12:12:36.329Z,78.36
2023-03-02T12:13:36.184Z,77.08
2023-03-02T12:14:36.137Z,77.84
2023-03-02T12:15:36.120Z,78.25
2023-03-02T12:16:36.610Z,78.15
2023-03-02T12:17:36.082Z,78.25
2023-03-02T12:18:36.083Z,78.84
2023-03-02T12:19:36.076Z,81.90
2023-03-02T12:20:36.053Z,80.66
2023-03-02T12:21:36.037Z,80.73
2023-03-02T12:22:36.101Z,79.76
2023-03-02T12:23:36.042Z,78.11
2023-03-02T12:24:36.001Z,76.98
2023-03-02T12:25:36.026Z,77.28
2023-03-02T12:26:36.452Z,77.39
2023-03-02T12:27:36.042Z,79.04
2023-03-02T12:28:35.976Z,77.28
2023-03-02T12:29:35.948Z,76.67
2023-03-02T12:30:35.954Z,75.74
2023-03-02T12:31:35.946Z,76.77
2023-03-02T12:32:35.988Z,76.35
2023-03-02T12:33:35.904Z,76.01
2023-03-02T12:34:35.907Z,75.57
2023-03-02T12:35:35.952Z,76.18
2023-03-02T12:36:35.907Z,75.81
2023-03-02T12:37:35.882Z,77.19
2023-03-02T12:38:35.905Z,77.19
2023-03-02T12:39:35.864Z,78.84
2023-03-02T12:40:35.897Z,78.84
2023-03-02T12:41:35.843Z,79.01
2023-03-02T12:42:35.796Z,77.32
2023-03-02T12:43:35.794Z,77.22
2023-03-02T12:44:35.783Z,78.63
2023-03-02T12:45:35.806Z,77.08
2023-03-02T12:46:36.301Z,77.59
2023-03-02T12:47:35.818Z,78.42
2023-03-02T12:48:35.771Z,77.32
2023-03-02T12:49:35.757Z,77.80
2023-03-02T12:50:35.742Z,79.52
2023-03-02T12:51:35.829Z,76.73
2023-03-02T12:52:35.746Z,78.38